Pilot Point, Texas
Current Conditions -  °F | °C
As of 11:53 PM on Tuesday 21 Oct 2014 (Local Time) from KDTO Reporting Station
Clear Clear  
Wind Chill: 64°   Ceiling: Unl
Heat Index: 64°   Visibility: 10mi
Dew Point: 59°   Wind: 3mph
Humidity: 84%   Direction: 140°SE
Pressure: 30.07"   Gusts: NA
Location:  33.4°N, 96.96°W
Report Text: KDTO 220453Z AUTO 14003KT 10SM CLR 18/15 A3007 RMK AO2 SLP176 T01780150
Loading
Personal Weather Stations






























Interactive Weather Map New forecast layout! Learn more

10-Day Weather Forecast

Advertisements
Track Severe Weather on mobile